sensor_id;sensor_type;location;lat;lon;timestamp;P1;durP1;ratioP1;P2;durP2;ratioP2
1811;SDS011;904;47.814;11.134;2024-02-28T00:00:55;18.30;;;13.10;;
1811;SDS011;904;47.814;11.134;2024-02-28T00:03:26;15.52;;;11.85;;
1811;SDS011;904;47.814;11.134;2024-02-28T00:05:56;19.63;;;13.40;;
1811;SDS011;904;47.814;11.134;2024-02-28T00:08:23;17.83;;;12.77;;
1811;SDS011;904;47.814;11.134;2024-02-28T00:10:52;16.38;;;13.65;;
1811;SDS011;904;47.814;11.134;2024-02-28T00:13:19;17.35;;;12.23;;
1811;SDS011;904;47.814;11.134;2024-02-28T00:15:47;17.85;;;12.50;;
1811;SDS011;904;47.814;11.134;2024-02-28T00:18:15;17.80;;;11.68;;
1811;SDS011;904;47.814;11.134;2024-02-28T00:20:44;21.02;;;12.75;;
1811;SDS011;904;47.814;11.134;2024-02-28T00:23:13;15.65;;;11.30;;
1811;SDS011;904;47.814;11.134;2024-02-28T00:25:41;17.40;;;13.27;;
1811;SDS011;904;47.814;11.134;2024-02-28T00:28:10;18.92;;;13.45;;
1811;SDS011;904;47.814;11.134;2024-02-28T00:30:42;18.17;;;12.23;;
1811;SDS011;904;47.814;11.134;2024-02-28T00:33:10;19.42;;;12.90;;
1811;SDS011;904;47.814;11.134;2024-02-28T00:35:39;18.98;;;13.18;;
1811;SDS011;904;47.814;11.134;2024-02-28T00:38:07;24.13;;;13.63;;
1811;SDS011;904;47.814;11.134;2024-02-28T00:40:36;23.55;;;13.82;;
1811;SDS011;904;47.814;11.134;2024-02-28T00:43:04;18.58;;;12.82;;
1811;SDS011;904;47.814;11.134;2024-02-28T00:45:31;16.38;;;12.80;;
1811;SDS011;904;47.814;11.134;2024-02-28T00:48:01;18.65;;;12.38;;
1811;SDS011;904;47.814;11.134;2024-02-28T00:50:28;18.73;;;13.85;;
1811;SDS011;904;47.814;11.134;2024-02-28T00:52:56;18.60;;;12.70;;
1811;SDS011;904;47.814;11.134;2024-02-28T00:55:23;16.70;;;11.63;;
1811;SDS011;904;47.814;11.134;2024-02-28T00:57:52;21.77;;;13.52;;
1811;SDS011;904;47.814;11.134;2024-02-28T01:00:19;19.60;;;12.00;;
1811;SDS011;904;47.814;11.134;2024-02-28T01:02:47;16.35;;;13.27;;
1811;SDS011;904;47.814;11.134;2024-02-28T01:05:16;18.13;;;12.02;;
1811;SDS011;904;47.814;11.134;2024-02-28T01:07:45;16.75;;;12.10;;
1811;SDS011;904;47.814;11.134;2024-02-28T01:10:13;21.73;;;15.18;;
1811;SDS011;904;47.814;11.134;2024-02-28T01:12:40;18.40;;;12.20;;
1811;SDS011;904;47.814;11.134;2024-02-28T01:15:09;19.75;;;12.38;;
1811;SDS011;904;47.814;11.134;2024-02-28T01:17:36;17.92;;;12.90;;
1811;SDS011;904;47.814;11.134;2024-02-28T01:20:03;17.13;;;12.23;;
1811;SDS011;904;47.814;11.134;2024-02-28T01:22:32;20.23;;;11.88;;
1811;SDS011;904;47.814;11.134;2024-02-28T01:24:59;19.02;;;13.05;;
1811;SDS011;904;47.814;11.134;2024-02-28T01:27:28;18.77;;;11.55;;
1811;SDS011;904;47.814;11.134;2024-02-28T01:30:02;17.95;;;12.77;;
1811;SDS011;904;47.814;11.134;2024-02-28T01:32:32;20.58;;;11.60;;
1811;SDS011;904;47.814;11.134;2024-02-28T01:34:59;14.02;;;11.30;;
1811;SDS011;904;47.814;11.134;2024-02-28T01:37:31;17.67;;;12.65;;
1811;SDS011;904;47.814;11.134;2024-02-28T01:39:58;14.50;;;11.60;;
1811;SDS011;904;47.814;11.134;2024-02-28T01:42:30;17.90;;;12.10;;
1811;SDS011;904;47.814;11.134;2024-02-28T01:45:02;17.70;;;12.70;;
1811;SDS011;904;47.814;11.134;2024-02-28T01:47:30;17.30;;;11.57;;
1811;SDS011;904;47.814;11.134;2024-02-28T01:49:58;17.98;;;11.18;;
1811;SDS011;904;47.814;11.134;2024-02-28T01:52:32;18.02;;;12.95;;
1811;SDS011;904;47.814;11.134;2024-02-28T01:55:01;20.80;;;12.95;;
1811;SDS011;904;47.814;11.134;2024-02-28T01:57:31;20.88;;;12.18;;
1811;SDS011;904;47.814;11.134;2024-02-28T02:00:00;17.20;;;12.35;;
1811;SDS011;904;47.814;11.134;2024-02-28T02:02:27;15.65;;;11.57;;
1811;SDS011;904;47.814;11.134;2024-02-28T02:04:56;20.00;;;12.52;;
1811;SDS011;904;47.814;11.134;2024-02-28T02:07:23;20.00;;;13.13;;
1811;SDS011;904;47.814;11.134;2024-02-28T02:09:51;14.23;;;11.20;;
1811;SDS011;904;47.814;11.134;2024-02-28T02:12:18;17.23;;;12.43;;
1811;SDS011;904;47.814;11.134;2024-02-28T02:14:47;20.35;;;13.45;;
1811;SDS011;904;47.814;11.134;2024-02-28T02:17:14;17.33;;;11.55;;
1811;SDS011;904;47.814;11.134;2024-02-28T02:19:47;18.40;;;13.68;;
1811;SDS011;904;47.814;11.134;2024-02-28T02:22:16;16.00;;;11.68;;
1811;SDS011;904;47.814;11.134;2024-02-28T02:24:46;15.63;;;10.45;;
1811;SDS011;904;47.814;11.134;2024-02-28T02:27:19;19.65;;;12.82;;
1811;SDS011;904;47.814;11.134;2024-02-28T02:29:47;17.60;;;11.68;;
1811;SDS011;904;47.814;11.134;2024-02-28T02:32:15;20.70;;;13.25;;
1811;SDS011;904;47.814;11.134;2024-02-28T02:34:42;14.98;;;10.88;;
1811;SDS011;904;47.814;11.134;2024-02-28T02:37:10;17.52;;;13.55;;
1811;SDS011;904;47.814;11.134;2024-02-28T02:39:37;18.73;;;12.27;;
1811;SDS011;904;47.814;11.134;2024-02-28T02:42:05;17.75;;;13.10;;
1811;SDS011;904;47.814;11.134;2024-02-28T02:44:33;16.92;;;11.43;;
1811;SDS011;904;47.814;11.134;2024-02-28T02:47:00;17.30;;;12.32;;
1811;SDS011;904;47.814;11.134;2024-02-28T02:49:28;17.83;;;11.90;;
1811;SDS011;904;47.814;11.134;2024-02-28T02:51:55;14.75;;;10.43;;
1811;SDS011;904;47.814;11.134;2024-02-28T02:54:26;18.08;;;13.05;;
1811;SDS011;904;47.814;11.134;2024-02-28T02:56:53;16.10;;;11.40;;
1811;SDS011;904;47.814;11.134;2024-02-28T02:59:22;21.98;;;14.07;;
1811;SDS011;904;47.814;11.134;2024-02-28T03:01:49;19.65;;;13.25;;
1811;SDS011;904;47.814;11.134;2024-02-28T03:04:20;19.92;;;12.68;;
1811;SDS011;904;47.814;11.134;2024-02-28T03:06:47;17.30;;;12.30;;
1811;SDS011;904;47.814;11.134;2024-02-28T03:09:19;19.50;;;12.55;;
1811;SDS011;904;47.814;11.134;2024-02-28T03:11:46;21.58;;;15.70;;
1811;SDS011;904;47.814;11.134;2024-02-28T03:14:14;17.98;;;11.65;;
1811;SDS011;904;47.814;11.134;2024-02-28T03:16:48;15.02;;;11.90;;
1811;SDS011;904;47.814;11.134;2024-02-28T03:19:15;18.13;;;11.73;;
1811;SDS011;904;47.814;11.134;2024-02-28T03:21:42;19.73;;;12.15;;
1811;SDS011;904;47.814;11.134;2024-02-28T03:24:09;15.15;;;10.95;;
1811;SDS011;904;47.814;11.134;2024-02-28T03:26:36;18.65;;;11.30;;
1811;SDS011;904;47.814;11.134;2024-02-28T03:29:03;18.25;;;11.68;;
1811;SDS011;904;47.814;11.134;2024-02-28T03:31:31;15.95;;;11.70;;
1811;SDS011;904;47.814;11.134;2024-02-28T03:33:59;16.90;;;11.13;;
1811;SDS011;904;47.814;11.134;2024-02-28T03:36:34;17.35;;;11.80;;
1811;SDS011;904;47.814;11.134;2024-02-28T03:39:02;15.65;;;12.57;;
1811;SDS011;904;47.814;11.134;2024-02-28T03:41:31;15.32;;;12.18;;
1811;SDS011;904;47.814;11.134;2024-02-28T03:43:58;16.42;;;11.82;;
1811;SDS011;904;47.814;11.134;2024-02-28T03:46:25;18.55;;;11.38;;
1811;SDS011;904;47.814;11.134;2024-02-28T03:48:57;15.63;;;12.25;;
1811;SDS011;904;47.814;11.134;2024-02-28T03:51:25;16.00;;;12.25;;
1811;SDS011;904;47.814;11.134;2024-02-28T03:53:52;18.83;;;11.98;;
1811;SDS011;904;47.814;11.134;2024-02-28T03:56:22;17.13;;;11.35;;
1811;SDS011;904;47.814;11.134;2024-02-28T03:58:50;17.92;;;12.48;;
1811;SDS011;904;47.814;11.134;2024-02-28T04:01:17;17.98;;;11.23;;
1811;SDS011;904;47.814;11.134;2024-02-28T04:03:45;20.55;;;13.05;;
1811;SDS011;904;47.814;11.134;2024-02-28T04:06:12;21.08;;;13.07;;
1811;SDS011;904;47.814;11.134;2024-02-28T04:08:41;17.45;;;12.68;;
1811;SDS011;904;47.814;11.134;2024-02-28T04:11:08;16.15;;;11.55;;
1811;SDS011;904;47.814;11.134;2024-02-28T04:13:36;17.10;;;12.48;;
1811;SDS011;904;47.814;11.134;2024-02-28T04:16:03;16.23;;;12.40;;
1811;SDS011;904;47.814;11.134;2024-02-28T04:18:30;17.15;;;13.30;;
1811;SDS011;904;47.814;11.134;2024-02-28T04:20:59;16.35;;;11.75;;
1811;SDS011;904;47.814;11.134;2024-02-28T04:23:26;19.33;;;12.05;;
1811;SDS011;904;47.814;11.134;2024-02-28T04:26:00;20.08;;;14.40;;
1811;SDS011;904;47.814;11.134;2024-02-28T04:28:27;18.30;;;13.00;;
1811;SDS011;904;47.814;11.134;2024-02-28T04:30:58;16.52;;;12.02;;
1811;SDS011;904;47.814;11.134;2024-02-28T04:33:25;17.90;;;12.85;;
1811;SDS011;904;47.814;11.134;2024-02-28T04:35:52;18.38;;;12.23;;
1811;SDS011;904;47.814;11.134;2024-02-28T04:38:25;21.75;;;12.00;;
1811;SDS011;904;47.814;11.134;2024-02-28T04:40:52;17.95;;;11.02;;
1811;SDS011;904;47.814;11.134;2024-02-28T04:43:20;16.73;;;12.18;;
1811;SDS011;904;47.814;11.134;2024-02-28T04:45:48;16.77;;;12.45;;
1811;SDS011;904;47.814;11.134;2024-02-28T04:48:15;18.05;;;13.10;;
1811;SDS011;904;47.814;11.134;2024-02-28T04:50:42;17.98;;;12.50;;
1811;SDS011;904;47.814;11.134;2024-02-28T04:53:11;19.00;;;14.15;;
1811;SDS011;904;47.814;11.134;2024-02-28T04:55:38;18.88;;;12.82;;
1811;SDS011;904;47.814;11.134;2024-02-28T04:58:05;18.80;;;13.00;;
1811;SDS011;904;47.814;11.134;2024-02-28T05:00:34;17.08;;;12.82;;
1811;SDS011;904;47.814;11.134;2024-02-28T05:03:01;18.40;;;12.40;;
1811;SDS011;904;47.814;11.134;2024-02-28T05:05:28;18.30;;;12.23;;
1811;SDS011;904;47.814;11.134;2024-02-28T05:07:55;17.33;;;12.32;;
1811;SDS011;904;47.814;11.134;2024-02-28T05:10:22;15.50;;;11.52;;
1811;SDS011;904;47.814;11.134;2024-02-28T05:12:49;17.08;;;12.48;;
1811;SDS011;904;47.814;11.134;2024-02-28T05:15:16;17.20;;;13.48;;
1811;SDS011;904;47.814;11.134;2024-02-28T05:17:49;17.05;;;11.95;;
1811;SDS011;904;47.814;11.134;2024-02-28T05:20:16;15.13;;;12.13;;
1811;SDS011;904;47.814;11.134;2024-02-28T05:22:44;15.45;;;11.77;;
1811;SDS011;904;47.814;11.134;2024-02-28T05:25:11;18.45;;;13.63;;
1811;SDS011;904;47.814;11.134;2024-02-28T05:27:38;18.42;;;13.20;;
1811;SDS011;904;47.814;11.134;2024-02-28T05:30:10;16.08;;;12.52;;
1811;SDS011;904;47.814;11.134;2024-02-28T05:32:38;18.85;;;14.20;;
1811;SDS011;904;47.814;11.134;2024-02-28T05:35:07;16.30;;;12.02;;
1811;SDS011;904;47.814;11.134;2024-02-28T05:37:36;19.77;;;12.88;;
1811;SDS011;904;47.814;11.134;2024-02-28T05:40:08;16.98;;;12.30;;
1811;SDS011;904;47.814;11.134;2024-02-28T05:42:37;18.85;;;12.32;;
1811;SDS011;904;47.814;11.134;2024-02-28T05:45:05;16.60;;;12.38;;
1811;SDS011;904;47.814;11.134;2024-02-28T05:47:35;16.67;;;12.07;;
1811;SDS011;904;47.814;11.134;2024-02-28T05:50:09;16.75;;;12.60;;
1811;SDS011;904;47.814;11.134;2024-02-28T05:52:38;19.05;;;11.63;;
1811;SDS011;904;47.814;11.134;2024-02-28T05:55:10;19.40;;;13.68;;
1811;SDS011;904;47.814;11.134;2024-02-28T05:57:39;25.15;;;12.82;;
1811;SDS011;904;47.814;11.134;2024-02-28T06:00:10;18.95;;;13.07;;
1811;SDS011;904;47.814;11.134;2024-02-28T06:02:39;17.48;;;11.98;;
1811;SDS011;904;47.814;11.134;2024-02-28T06:05:09;17.83;;;11.13;;
1811;SDS011;904;47.814;11.134;2024-02-28T06:07:36;17.20;;;12.65;;
1811;SDS011;904;47.814;11.134;2024-02-28T06:10:10;19.92;;;13.00;;
1811;SDS011;904;47.814;11.134;2024-02-28T06:12:41;18.35;;;12.90;;
1811;SDS011;904;47.814;11.134;2024-02-28T06:15:14;17.52;;;11.32;;
1811;SDS011;904;47.814;11.134;2024-02-28T06:17:42;13.70;;;9.98;;
1811;SDS011;904;47.814;11.134;2024-02-28T06:20:10;16.40;;;10.90;;
1811;SDS011;904;47.814;11.134;2024-02-28T06:22:39;18.33;;;12.35;;
1811;SDS011;904;47.814;11.134;2024-02-28T06:25:06;17.23;;;12.10;;
1811;SDS011;904;47.814;11.134;2024-02-28T06:27:42;17.20;;;12.57;;
1811;SDS011;904;47.814;11.134;2024-02-28T06:30:10;17.98;;;13.57;;
1811;SDS011;904;47.814;11.134;2024-02-28T06:32:38;18.50;;;14.20;;
1811;SDS011;904;47.814;11.134;2024-02-28T06:35:06;21.40;;;13.90;;
1811;SDS011;904;47.814;11.134;2024-02-28T06:37:35;17.05;;;12.43;;
1811;SDS011;904;47.814;11.134;2024-02-28T06:40:03;17.80;;;13.73;;
1811;SDS011;904;47.814;11.134;2024-02-28T06:42:31;19.55;;;14.35;;
1811;SDS011;904;47.814;11.134;2024-02-28T06:44:58;21.77;;;14.48;;
1811;SDS011;904;47.814;11.134;2024-02-28T06:47:25;18.25;;;13.07;;
1811;SDS011;904;47.814;11.134;2024-02-28T06:49:52;20.13;;;13.90;;
1811;SDS011;904;47.814;11.134;2024-02-28T06:52:19;24.70;;;14.57;;
1811;SDS011;904;47.814;11.134;2024-02-28T06:54:47;25.48;;;13.18;;
1811;SDS011;904;47.814;11.134;2024-02-28T06:57:14;18.23;;;12.80;;
1811;SDS011;904;47.814;11.134;2024-02-28T06:59:41;18.13;;;13.38;;
1811;SDS011;904;47.814;11.134;2024-02-28T07:02:08;19.00;;;12.48;;
1811;SDS011;904;47.814;11.134;2024-02-28T07:04:35;17.42;;;11.98;;
1811;SDS011;904;47.814;11.134;2024-02-28T07:07:04;19.90;;;13.25;;
1811;SDS011;904;47.814;11.134;2024-02-28T07:09:31;18.02;;;13.57;;
1811;SDS011;904;47.814;11.134;2024-02-28T07:11:59;17.30;;;13.60;;
1811;SDS011;904;47.814;11.134;2024-02-28T07:14:27;17.50;;;13.25;;
1811;SDS011;904;47.814;11.134;2024-02-28T07:16:54;20.58;;;13.85;;
1811;SDS011;904;47.814;11.134;2024-02-28T07:19:21;17.45;;;12.32;;
1811;SDS011;904;47.814;11.134;2024-02-28T07:21:48;19.60;;;13.88;;
1811;SDS011;904;47.814;11.134;2024-02-28T07:24:14;16.40;;;13.20;;
1811;SDS011;904;47.814;11.134;2024-02-28T07:26:41;17.85;;;12.82;;
1811;SDS011;904;47.814;11.134;2024-02-28T07:29:10;19.27;;;14.25;;
1811;SDS011;904;47.814;11.134;2024-02-28T07:31:37;21.67;;;15.30;;
1811;SDS011;904;47.814;11.134;2024-02-28T07:34:05;18.65;;;13.82;;
1811;SDS011;904;47.814;11.134;2024-02-28T07:36:33;21.67;;;14.95;;
1811;SDS011;904;47.814;11.134;2024-02-28T07:39:00;26.17;;;15.45;;
1811;SDS011;904;47.814;11.134;2024-02-28T07:41:28;20.70;;;15.20;;
1811;SDS011;904;47.814;11.134;2024-02-28T07:43:54;19.13;;;15.80;;
1811;SDS011;904;47.814;11.134;2024-02-28T07:46:23;23.20;;;17.15;;
1811;SDS011;904;47.814;11.134;2024-02-28T07:48:50;21.30;;;15.13;;
1811;SDS011;904;47.814;11.134;2024-02-28T07:51:17;21.75;;;15.63;;
1811;SDS011;904;47.814;11.134;2024-02-28T07:53:44;22.98;;;16.20;;
1811;SDS011;904;47.814;11.134;2024-02-28T07:56:15;23.60;;;15.35;;
1811;SDS011;904;47.814;11.134;2024-02-28T07:58:43;24.40;;;16.08;;
1811;SDS011;904;47.814;11.134;2024-02-28T08:01:10;23.08;;;18.75;;
1811;SDS011;904;47.814;11.134;2024-02-28T08:03:39;21.45;;;17.70;;
1811;SDS011;904;47.814;11.134;2024-02-28T08:06:06;24.13;;;17.48;;
1811;SDS011;904;47.814;11.134;2024-02-28T08:08:34;22.95;;;16.45;;
1811;SDS011;904;47.814;11.134;2024-02-28T08:11:01;26.45;;;17.30;;
1811;SDS011;904;47.814;11.134;2024-02-28T08:13:28;22.13;;;17.17;;
1811;SDS011;904;47.814;11.134;2024-02-28T08:15:55;21.27;;;16.92;;
1811;SDS011;904;47.814;11.134;2024-02-28T08:18:22;29.88;;;18.73;;
1811;SDS011;904;47.814;11.134;2024-02-28T08:20:50;24.92;;;17.60;;
1811;SDS011;904;47.814;11.134;2024-02-28T08:23:18;20.33;;;16.60;;
1811;SDS011;904;47.814;11.134;2024-02-28T08:25:45;19.83;;;15.63;;
1811;SDS011;904;47.814;11.134;2024-02-28T08:28:12;25.63;;;17.58;;
1811;SDS011;904;47.814;11.134;2024-02-28T08:30:39;25.42;;;17.52;;
1811;SDS011;904;47.814;11.134;2024-02-28T08:33:06;28.27;;;18.92;;
1811;SDS011;904;47.814;11.134;2024-02-28T08:35:34;29.33;;;19.45;;
1811;SDS011;904;47.814;11.134;2024-02-28T08:38:02;30.60;;;20.02;;
1811;SDS011;904;47.814;11.134;2024-02-28T08:40:29;30.65;;;18.88;;
1811;SDS011;904;47.814;11.134;2024-02-28T08:42:56;31.25;;;18.48;;
1811;SDS011;904;47.814;11.134;2024-02-28T08:45:23;28.10;;;17.50;;
1811;SDS011;904;47.814;11.134;2024-02-28T08:47:50;34.67;;;19.33;;
1811;SDS011;904;47.814;11.134;2024-02-28T08:50:18;31.73;;;19.92;;
1811;SDS011;904;47.814;11.134;2024-02-28T08:52:45;34.22;;;20.73;;
1811;SDS011;904;47.814;11.134;2024-02-28T08:55:13;28.08;;;18.95;;
1811;SDS011;904;47.814;11.134;2024-02-28T08:57:43;35.58;;;20.50;;
1811;SDS011;904;47.814;11.134;2024-02-28T09:00:11;27.50;;;19.73;;
1811;SDS011;904;47.814;11.134;2024-02-28T09:02:40;36.35;;;21.50;;
1811;SDS011;904;47.814;11.134;2024-02-28T09:05:07;36.33;;;23.88;;
1811;SDS011;904;47.814;11.134;2024-02-28T09:07:35;30.55;;;19.65;;
1811;SDS011;904;47.814;11.134;2024-02-28T09:10:03;29.02;;;19.25;;
1811;SDS011;904;47.814;11.134;2024-02-28T09:12:35;29.98;;;20.45;;
1811;SDS011;904;47.814;11.134;2024-02-28T09:15:02;37.58;;;23.38;;
1811;SDS011;904;47.814;11.134;2024-02-28T09:17:29;33.50;;;22.48;;
1811;SDS011;904;47.814;11.134;2024-02-28T09:19:56;40.50;;;24.10;;
1811;SDS011;904;47.814;11.134;2024-02-28T09:22:25;37.65;;;22.50;;
1811;SDS011;904;47.814;11.134;2024-02-28T09:24:52;38.33;;;23.08;;
1811;SDS011;904;47.814;11.134;2024-02-28T09:27:19;40.42;;;24.00;;
1811;SDS011;904;47.814;11.134;2024-02-28T09:29:48;40.30;;;23.10;;
1811;SDS011;904;47.814;11.134;2024-02-28T09:32:14;33.70;;;22.60;;
1811;SDS011;904;47.814;11.134;2024-02-28T09:34:43;40.80;;;24.65;;
1811;SDS011;904;47.814;11.134;2024-02-28T09:37:10;38.47;;;23.35;;
1811;SDS011;904;47.814;11.134;2024-02-28T09:39:37;42.97;;;26.38;;
1811;SDS011;904;47.814;11.134;2024-02-28T09:42:04;35.00;;;23.02;;
1811;SDS011;904;47.814;11.134;2024-02-28T09:44:33;44.28;;;25.55;;
1811;SDS011;904;47.814;11.134;2024-02-28T09:47:02;42.08;;;23.63;;
1811;SDS011;904;47.814;11.134;2024-02-28T09:49:31;45.30;;;25.13;;
1811;SDS011;904;47.814;11.134;2024-02-28T09:51:58;44.30;;;26.13;;
1811;SDS011;904;47.814;11.134;2024-02-28T09:54:25;44.03;;;25.13;;
1811;SDS011;904;47.814;11.134;2024-02-28T09:56:52;42.85;;;26.88;;
1811;SDS011;904;47.814;11.134;2024-02-28T09:59:21;47.55;;;26.10;;
1811;SDS011;904;47.814;11.134;2024-02-28T10:01:53;43.00;;;27.25;;
1811;SDS011;904;47.814;11.134;2024-02-28T10:04:24;44.78;;;27.67;;
1811;SDS011;904;47.814;11.134;2024-02-28T10:06:52;42.33;;;24.40;;
1811;SDS011;904;47.814;11.134;2024-02-28T10:09:19;42.45;;;24.08;;
1811;SDS011;904;47.814;11.134;2024-02-28T10:11:46;41.67;;;22.95;;
1811;SDS011;904;47.814;11.134;2024-02-28T10:14:17;41.17;;;24.10;;
1811;SDS011;904;47.814;11.134;2024-02-28T10:16:44;43.00;;;25.60;;
1811;SDS011;904;47.814;11.134;2024-02-28T10:19:11;41.72;;;25.50;;
1811;SDS011;904;47.814;11.134;2024-02-28T10:21:40;38.95;;;24.05;;
1811;SDS011;904;47.814;11.134;2024-02-28T10:24:07;40.72;;;25.70;;
1811;SDS011;904;47.814;11.134;2024-02-28T10:26:44;42.05;;;26.40;;
1811;SDS011;904;47.814;11.134;2024-02-28T10:29:13;44.00;;;25.95;;
1811;SDS011;904;47.814;11.134;2024-02-28T10:31:41;38.10;;;24.45;;
1811;SDS011;904;47.814;11.134;2024-02-28T10:34:10;38.20;;;24.13;;
1811;SDS011;904;47.814;11.134;2024-02-28T10:36:39;39.63;;;23.38;;
1811;SDS011;904;47.814;11.134;2024-02-28T10:39:07;41.90;;;23.38;;
1811;SDS011;904;47.814;11.134;2024-02-28T10:41:35;42.38;;;24.20;;
1811;SDS011;904;47.814;11.134;2024-02-28T10:44:04;36.85;;;23.05;;
1811;SDS011;904;47.814;11.134;2024-02-28T10:46:31;39.63;;;23.90;;
1811;SDS011;904;47.814;11.134;2024-02-28T10:48:58;39.88;;;23.15;;
1811;SDS011;904;47.814;11.134;2024-02-28T10:51:24;41.67;;;26.23;;
1811;SDS011;904;47.814;11.134;2024-02-28T10:53:55;40.83;;;24.45;;
1811;SDS011;904;47.814;11.134;2024-02-28T10:56:31;39.05;;;23.20;;
1811;SDS011;904;47.814;11.134;2024-02-28T10:58:59;34.88;;;21.20;;
1811;SDS011;904;47.814;11.134;2024-02-28T11:01:26;40.00;;;25.88;;
1811;SDS011;904;47.814;11.134;2024-02-28T11:03:53;35.00;;;24.00;;
1811;SDS011;904;47.814;11.134;2024-02-28T11:06:22;41.85;;;25.75;;
1811;SDS011;904;47.814;11.134;2024-02-28T11:08:49;39.90;;;24.90;;
1811;SDS011;904;47.814;11.134;2024-02-28T11:11:20;40.65;;;23.85;;
1811;SDS011;904;47.814;11.134;2024-02-28T11:13:53;45.05;;;24.27;;
1811;SDS011;904;47.814;11.134;2024-02-28T11:16:27;34.60;;;23.73;;
1811;SDS011;904;47.814;11.134;2024-02-28T11:18:55;34.33;;;21.48;;
1811;SDS011;904;47.814;11.134;2024-02-28T11:21:24;36.63;;;23.38;;
1811;SDS011;904;47.814;11.134;2024-02-28T11:23:52;37.60;;;24.27;;
1811;SDS011;904;47.814;11.134;2024-02-28T11:26:24;37.30;;;23.30;;
1811;SDS011;904;47.814;11.134;2024-02-28T11:28:52;38.25;;;24.05;;
1811;SDS011;904;47.814;11.134;2024-02-28T11:31:20;39.03;;;23.02;;
1811;SDS011;904;47.814;11.134;2024-02-28T11:33:47;41.80;;;22.92;;
1811;SDS011;904;47.814;11.134;2024-02-28T11:36:14;43.25;;;25.23;;
1811;SDS011;904;47.814;11.134;2024-02-28T11:38:41;35.55;;;23.00;;
1811;SDS011;904;47.814;11.134;2024-02-28T11:41:08;37.47;;;23.85;;
1811;SDS011;904;47.814;11.134;2024-02-28T11:43:36;40.22;;;24.92;;
1811;SDS011;904;47.814;11.134;2024-02-28T11:46:07;40.38;;;25.45;;
1811;SDS011;904;47.814;11.134;2024-02-28T11:48:36;37.55;;;23.70;;
1811;SDS011;904;47.814;11.134;2024-02-28T11:51:03;34.10;;;22.85;;
1811;SDS011;904;47.814;11.134;2024-02-28T11:53:30;39.85;;;24.52;;
1811;SDS011;904;47.814;11.134;2024-02-28T11:55:56;41.60;;;24.10;;
1811;SDS011;904;47.814;11.134;2024-02-28T11:58:23;35.28;;;23.58;;
1811;SDS011;904;47.814;11.134;2024-02-28T12:00:52;46.03;;;24.40;;
1811;SDS011;904;47.814;11.134;2024-02-28T12:03:20;36.30;;;24.38;;
1811;SDS011;904;47.814;11.134;2024-02-28T12:05:48;33.97;;;24.40;;
1811;SDS011;904;47.814;11.134;2024-02-28T12:08:16;34.45;;;23.33;;
1811;SDS011;904;47.814;11.134;2024-02-28T12:10:45;35.58;;;21.92;;
1811;SDS011;904;47.814;11.134;2024-02-28T12:13:15;32.03;;;21.27;;
1811;SDS011;904;47.814;11.134;2024-02-28T12:15:43;33.58;;;23.38;;
1811;SDS011;904;47.814;11.134;2024-02-28T12:18:12;34.65;;;23.48;;
1811;SDS011;904;47.814;11.134;2024-02-28T12:20:41;33.40;;;22.40;;
1811;SDS011;904;47.814;11.134;2024-02-28T12:23:08;33.97;;;23.42;;
1811;SDS011;904;47.814;11.134;2024-02-28T12:25:35;38.17;;;23.73;;
1811;SDS011;904;47.814;11.134;2024-02-28T12:28:03;33.22;;;21.35;;
1811;SDS011;904;47.814;11.134;2024-02-28T12:30:38;34.35;;;24.73;;
1811;SDS011;904;47.814;11.134;2024-02-28T12:33:06;31.75;;;21.73;;
1811;SDS011;904;47.814;11.134;2024-02-28T12:35:35;35.28;;;21.42;;
1811;SDS011;904;47.814;11.134;2024-02-28T12:38:02;33.17;;;23.45;;
1811;SDS011;904;47.814;11.134;2024-02-28T12:40:29;36.50;;;22.98;;
1811;SDS011;904;47.814;11.134;2024-02-28T12:42:56;39.45;;;23.45;;
1811;SDS011;904;47.814;11.134;2024-02-28T12:45:23;38.85;;;23.10;;
1811;SDS011;904;47.814;11.134;2024-02-28T12:47:50;33.83;;;23.55;;
1811;SDS011;904;47.814;11.134;2024-02-28T12:50:19;34.35;;;22.55;;
1811;SDS011;904;47.814;11.134;2024-02-28T12:52:48;37.20;;;25.55;;
1811;SDS011;904;47.814;11.134;2024-02-28T12:55:18;33.42;;;23.00;;
1811;SDS011;904;47.814;11.134;2024-02-28T12:57:45;33.15;;;21.60;;
1811;SDS011;904;47.814;11.134;2024-02-28T13:00:12;37.10;;;23.55;;
1811;SDS011;904;47.814;11.134;2024-02-28T13:02:39;35.28;;;22.10;;
1811;SDS011;904;47.814;11.134;2024-02-28T13:05:07;36.25;;;23.17;;
1811;SDS011;904;47.814;11.134;2024-02-28T13:07:34;32.28;;;22.02;;
1811;SDS011;904;47.814;11.134;2024-02-28T13:10:04;34.55;;;20.88;;
1811;SDS011;904;47.814;11.134;2024-02-28T13:12:34;31.83;;;22.50;;
1811;SDS011;904;47.814;11.134;2024-02-28T13:15:01;35.72;;;22.77;;
1811;SDS011;904;47.814;11.134;2024-02-28T13:17:28;35.17;;;22.55;;
1811;SDS011;904;47.814;11.134;2024-02-28T13:19:55;41.58;;;23.27;;
1811;SDS011;904;47.814;11.134;2024-02-28T13:22:22;32.97;;;22.35;;
1811;SDS011;904;47.814;11.134;2024-02-28T13:24:49;34.30;;;23.13;;
1811;SDS011;904;47.814;11.134;2024-02-28T13:27:17;36.28;;;23.95;;
1811;SDS011;904;47.814;11.134;2024-02-28T13:29:44;34.05;;;23.67;;
1811;SDS011;904;47.814;11.134;2024-02-28T13:32:11;35.58;;;23.40;;
1811;SDS011;904;47.814;11.134;2024-02-28T13:34:38;36.63;;;22.85;;
1811;SDS011;904;47.814;11.134;2024-02-28T13:37:05;34.03;;;22.88;;
1811;SDS011;904;47.814;11.134;2024-02-28T13:39:32;38.88;;;24.65;;
1811;SDS011;904;47.814;11.134;2024-02-28T13:42:00;34.40;;;24.02;;
1811;SDS011;904;47.814;11.134;2024-02-28T13:44:31;38.88;;;24.23;;
1811;SDS011;904;47.814;11.134;2024-02-28T13:46:59;37.22;;;23.30;;
1811;SDS011;904;47.814;11.134;2024-02-28T13:49:26;40.13;;;24.95;;
1811;SDS011;904;47.814;11.134;2024-02-28T13:51:53;37.35;;;22.35;;
1811;SDS011;904;47.814;11.134;2024-02-28T13:54:20;34.45;;;23.45;;
1811;SDS011;904;47.814;11.134;2024-02-28T13:56:47;37.97;;;22.52;;
1811;SDS011;904;47.814;11.134;2024-02-28T13:59:14;36.30;;;21.63;;
1811;SDS011;904;47.814;11.134;2024-02-28T14:01:42;43.20;;;23.00;;
1811;SDS011;904;47.814;11.134;2024-02-28T14:04:10;36.03;;;23.10;;
1811;SDS011;904;47.814;11.134;2024-02-28T14:06:37;36.42;;;22.20;;
1811;SDS011;904;47.814;11.134;2024-02-28T14:09:04;35.17;;;21.90;;
1811;SDS011;904;47.814;11.134;2024-02-28T14:11:31;40.60;;;23.02;;
1811;SDS011;904;47.814;11.134;2024-02-28T14:13:59;39.70;;;24.08;;
1811;SDS011;904;47.814;11.134;2024-02-28T14:16:26;42.22;;;25.02;;
1811;SDS011;904;47.814;11.134;2024-02-28T14:18:54;50.92;;;27.35;;
1811;SDS011;904;47.814;11.134;2024-02-28T14:21:21;39.17;;;24.45;;
1811;SDS011;904;47.814;11.134;2024-02-28T14:23:49;40.58;;;22.55;;
1811;SDS011;904;47.814;11.134;2024-02-28T14:26:16;35.80;;;20.80;;
1811;SDS011;904;47.814;11.134;2024-02-28T14:28:44;34.78;;;20.95;;
1811;SDS011;904;47.814;11.134;2024-02-28T14:31:10;33.10;;;22.20;;
1811;SDS011;904;47.814;11.134;2024-02-28T14:33:37;33.50;;;21.13;;
1811;SDS011;904;47.814;11.134;2024-02-28T14:36:06;36.60;;;22.73;;
1811;SDS011;904;47.814;11.134;2024-02-28T14:38:33;35.70;;;21.48;;
1811;SDS011;904;47.814;11.134;2024-02-28T14:41:00;36.70;;;21.85;;
1811;SDS011;904;47.814;11.134;2024-02-28T14:43:28;37.03;;;23.77;;
1811;SDS011;904;47.814;11.134;2024-02-28T14:45:55;35.95;;;21.52;;
1811;SDS011;904;47.814;11.134;2024-02-28T14:48:23;37.92;;;23.38;;
1811;SDS011;904;47.814;11.134;2024-02-28T14:50:50;33.78;;;23.10;;
1811;SDS011;904;47.814;11.134;2024-02-28T14:53:19;33.95;;;20.23;;